Time;durP1;ratioP1;P1;durP2;ratioP2;P2;SDS_P1;SDS_P2;PMS_P1;PMS_P2;Temp;Humidity;BMP_temperature;BMP_pressure;BME280_temperature;BME280_humidity;BME280_pressure;Samples;Min_cycle;Max_cycle;Signal;HPM_P1;HPM_P2
2022/06/09 00:00:26;;;;;;;41.53;15.27;;;16.00;99.90;;;;;;4817611;29;20064;-93
2022/06/09 00:02:57;;;;;;;38.83;16.17;;;15.30;99.90;;;;;;4801947;29;20474;-95
2022/06/09 00:05:23;;;;;;;31.90;15.38;;;16.70;99.90;;;;;;4816182;29;20106;-93
2022/06/09 00:07:54;;;;;;;39.92;16.02;;;14.50;99.90;;;;;;4787485;29;20121;-93
2022/06/09 00:10:24;;;;;;;35.53;15.60;;;16.60;99.90;;;;;;4787906;29;20431;-94
2022/06/09 00:12:50;;;;;;;34.25;15.02;;;16.00;99.90;;;;;;4817102;29;20169;-96
2022/06/09 00:15:16;;;;;;;36.45;15.38;;;15.40;99.90;;;;;;4819601;29;20050;-93
2022/06/09 00:17:43;;;;;;;43.20;15.57;;;15.60;99.90;;;;;;4803491;29;20050;-93
2022/06/09 00:20:10;;;;;;;40.83;15.38;;;14.50;99.90;;;;;;4817425;29;20054;-94
2022/06/09 00:22:37;;;;;;;31.38;14.82;;;15.00;99.90;;;;;;4818584;29;20082;-93
2022/06/09 00:25:04;;;;;;;39.25;15.23;;;16.00;99.90;;;;;;4818395;29;20419;-93
2022/06/09 00:27:30;;;;;;;39.88;14.27;;;13.70;99.90;;;;;;4826368;29;20042;-93
2022/06/09 00:29:56;;;;;;;36.63;14.13;;;15.70;99.90;;;;;;4808060;29;20093;-93
2022/06/09 00:32:22;;;;;;;39.45;15.18;;;15.90;99.90;;;;;;4789307;29;20202;-93
2022/06/09 00:34:48;;;;;;;38.70;13.40;;;15.90;99.90;;;;;;4802346;29;20073;-93
2022/06/09 00:37:14;;;;;;;46.83;14.88;;;16.60;99.90;;;;;;4788560;29;20053;-94
2022/06/09 00:39:40;;;;;;;42.03;13.90;;;15.10;99.90;;;;;;4787043;29;20058;-94
2022/06/09 00:42:09;;;;;;;39.65;14.32;;;16.60;99.90;;;;;;4787736;29;20058;-93
2022/06/09 00:44:37;;;;;;;37.25;13.55;;;15.30;99.90;;;;;;4802034;29;20054;-93
2022/06/09 00:47:13;;;;;;;36.08;13.82;;;16.50;99.90;;;;;;4816976;29;20045;-94
2022/06/09 00:49:46;;;;;;;42.47;14.07;;;16.70;99.90;;;;;;4818856;29;20410;-93
2022/06/09 00:52:19;;;;;;;46.47;14.65;;;16.70;99.90;;;;;;4833586;29;20050;-93
2022/06/09 00:54:53;;;;;;;37.00;14.30;;;14.80;99.90;;;;;;4819846;29;20050;-93
2022/06/09 00:57:30;;;;;;;42.30;13.85;;;14.70;99.90;;;;;;4833293;29;20061;-95
2022/06/09 01:00:03;;;;;;;40.80;13.73;;;14.70;99.90;;;;;;4833352;29;20061;-93
2022/06/09 01:02:29;;;;;;;44.95;13.80;;;15.40;99.90;;;;;;4817704;29;20544;-93
2022/06/09 01:04:56;;;;;;;45.90;13.82;;;14.50;99.90;;;;;;4818819;29;20061;-94
2022/06/09 01:07:31;;;;;;;39.63;13.57;;;14.90;99.90;;;;;;4803820;29;20054;-92
2022/06/09 01:09:57;;;;;;;36.08;13.68;;;16.30;99.90;;;;;;4818785;29;20058;-93
2022/06/09 01:12:31;;;;;;;41.22;13.65;;;16.20;99.90;;;;;;4803313;29;20077;-94
2022/06/09 01:15:16;;;;;;;41.38;14.15;;;15.60;99.90;;;;;;4817217;29;20058;-93
2022/06/09 01:18:02;;;;;;;37.47;14.07;;;14.60;99.90;;;;;;4818554;29;20092;-93
2022/06/09 01:21:00;;;;;;;42.45;15.02;;;14.70;99.90;;;;;;4817051;29;20050;-93
2022/06/09 01:23:50;;;;;;;37.08;14.25;;;14.70;99.90;;;;;;4817121;29;20058;-94
2022/06/09 01:26:33;;;;;;;47.15;14.27;;;16.00;99.90;;;;;;4816692;29;20049;-93
2022/06/09 01:29:21;;;;;;;43.08;14.80;;;16.40;99.90;;;;;;4832523;29;20065;-94
2022/06/09 01:31:53;;;;;;;39.58;14.38;;;16.40;99.90;;;;;;4834001;29;20058;-93
2022/06/09 01:34:25;;;;;;;46.92;16.17;;;15.00;99.90;;;;;;4816904;29;20058;-92
2022/06/09 01:37:09;;;;;;;46.20;16.15;;;15.20;99.90;;;;;;4835818;29;20132;-94
2022/06/09 01:39:46;;;;;;;41.35;14.63;;;14.80;99.90;;;;;;4837366;29;20050;-94
2022/06/09 01:42:19;;;;;;;32.95;13.55;;;14.70;99.90;;;;;;4821109;29;20114;-92
2022/06/09 01:44:45;;;;;;;37.97;14.63;;;15.90;99.90;;;;;;4833198;29;20050;-93
2022/06/09 01:47:13;;;;;;;37.67;14.25;;;16.20;99.90;;;;;;4804526;29;20057;-93
2022/06/09 01:49:40;;;;;;;44.47;14.98;;;15.80;99.90;;;;;;4806788;29;22379;-92
2022/06/09 01:52:06;;;;;;;45.20;14.95;;;15.40;99.90;;;;;;4805527;29;20427;-93
2022/06/09 01:54:38;;;;;;;46.95;15.77;;;16.00;99.90;;;;;;4805511;29;20499;-92
2022/06/09 01:57:10;;;;;;;44.92;15.10;;;14.80;99.90;;;;;;4821419;29;20448;-94
2022/06/09 01:59:59;;;;;;;43.80;16.00;;;16.00;99.90;;;;;;4820973;29;20061;-93
2022/06/09 02:02:32;;;;;;;43.50;15.00;;;14.80;99.90;;;;;;4820472;29;20069;-93
2022/06/09 02:05:06;;;;;;;44.08;15.25;;;14.90;99.90;;;;;;4821022;29;20097;-93
2022/06/09 02:07:34;;;;;;;30.63;14.40;;;14.90;99.90;;;;;;4833992;29;20046;-93
2022/06/09 02:10:27;;;;;;;36.83;14.13;;;16.20;99.90;;;;;;4805083;29;20388;-93
2022/06/09 02:12:54;;;;;;;40.65;15.60;;;15.20;99.90;;;;;;4818938;29;20053;-93
2022/06/09 02:15:32;;;;;;;44.15;15.35;;;16.40;99.90;;;;;;4789926;29;20107;-94
2022/06/09 02:18:05;;;;;;;63.00;17.00;;;16.60;99.90;;;;;;4821453;29;20057;-94
2022/06/09 02:20:32;;;;;;;40.92;15.20;;;16.30;99.90;;;;;;4821428;29;20414;-92
2022/06/09 02:22:58;;;;;;;39.97;16.27;;;15.50;99.90;;;;;;4820191;29;20049;-94
2022/06/09 02:25:24;;;;;;;38.60;15.93;;;15.80;99.90;;;;;;4790645;29;20129;-96
2022/06/09 02:27:50;;;;;;;45.58;16.92;;;15.10;99.90;;;;;;4790289;29;20058;-94
2022/06/09 02:30:16;;;;;;;37.88;17.10;;;16.40;99.90;;;;;;4806912;29;20054;-95
2022/06/09 02:32:42;;;;;;;50.20;18.42;;;14.60;99.90;;;;;;4791734;29;20081;-93
2022/06/09 02:35:09;;;;;;;38.92;17.33;;;14.70;99.90;;;;;;4804857;29;20050;-93
2022/06/09 02:37:35;;;;;;;39.03;16.45;;;15.40;99.90;;;;;;4802293;29;20495;-93
2022/06/09 02:40:01;;;;;;;47.42;17.55;;;14.90;99.90;;;;;;4802776;29;20053;-93
2022/06/09 02:42:26;;;;;;;44.90;17.10;;;14.70;99.90;;;;;;4786251;29;20054;-92
2022/06/09 02:44:52;;;;;;;38.78;17.17;;;15.10;99.90;;;;;;4802065;29;20054;-92
2022/06/09 02:47:19;;;;;;;45.58;17.65;;;15.20;99.90;;;;;;4795924;29;20087;-95
2022/06/09 02:49:45;;;;;;;46.58;16.65;;;16.00;99.90;;;;;;4817620;29;20058;-91
2022/06/09 02:52:11;;;;;;;42.65;17.60;;;15.90;99.90;;;;;;4787468;29;20057;-92
2022/06/09 02:54:37;;;;;;;42.63;18.25;;;14.60;99.90;;;;;;4787005;29;20054;-92
2022/06/09 02:57:04;;;;;;;44.17;18.35;;;15.60;99.90;;;;;;4803023;29;20065;-93
2022/06/09 02:59:30;;;;;;;42.35;18.35;;;16.00;99.90;;;;;;4786865;29;20049;-92
2022/06/09 03:01:56;;;;;;;44.58;18.02;;;16.40;99.90;;;;;;4787570;29;20156;-92
2022/06/09 03:04:22;;;;;;;47.13;18.52;;;15.30;99.90;;;;;;4786931;29;20054;-92
2022/06/09 03:06:47;;;;;;;51.95;19.92;;;15.30;99.90;;;;;;4786585;29;20057;-93
2022/06/09 03:09:14;;;;;;;36.47;18.10;;;16.20;99.90;;;;;;4786983;29;20046;-92
2022/06/09 03:11:40;;;;;;;44.90;19.52;;;14.60;99.90;;;;;;4787700;29;20538;-92
2022/06/09 03:14:07;;;;;;;39.95;17.55;;;16.00;99.90;;;;;;4804309;29;20057;-93
2022/06/09 03:16:33;;;;;;;40.63;16.85;;;15.80;99.90;;;;;;4787507;29;20078;-93
2022/06/09 03:18:59;;;;;;;42.17;17.95;;;15.70;99.90;;;;;;4787455;29;20050;-93
2022/06/09 03:21:25;;;;;;;35.08;17.25;;;14.50;99.90;;;;;;4785875;29;20061;-92
2022/06/09 03:23:51;;;;;;;42.63;17.33;;;16.40;99.90;;;;;;4786027;29;20061;-93
2022/06/09 03:26:17;;;;;;;36.55;17.65;;;16.20;99.90;;;;;;4785649;29;20099;-93
2022/06/09 03:28:43;;;;;;;45.60;18.30;;;15.90;99.90;;;;;;4785657;29;20061;-92
2022/06/09 03:31:09;;;;;;;45.65;19.50;;;16.30;99.90;;;;;;4785331;29;20050;-92
2022/06/09 03:33:35;;;;;;;36.47;17.30;;;16.20;99.90;;;;;;4785884;29;20072;-93
2022/06/09 03:36:02;;;;;;;47.25;18.13;;;15.30;99.90;;;;;;4800620;29;20046;-92
2022/06/09 03:38:29;;;;;;;43.45;17.73;;;14.90;99.90;;;;;;4801855;29;20050;-93
2022/06/09 03:40:58;;;;;;;41.33;18.60;;;16.40;99.90;;;;;;4803726;29;20050;-94
2022/06/09 03:43:24;;;;;;;38.28;16.77;;;16.30;99.90;;;;;;4804637;29;20110;-93
2022/06/09 03:45:53;;;;;;;48.70;18.70;;;14.70;99.90;;;;;;4802987;29;20058;-92
2022/06/09 03:48:19;;;;;;;37.88;17.42;;;15.20;99.90;;;;;;4802357;29;20058;-92
2022/06/09 03:50:45;;;;;;;41.15;17.05;;;16.20;99.90;;;;;;4787458;29;20053;-92
2022/06/09 03:53:13;;;;;;;41.80;18.58;;;15.90;99.90;;;;;;4786691;29;20054;-91
2022/06/09 03:55:39;;;;;;;36.75;17.73;;;14.50;99.90;;;;;;4801261;29;20050;-91
2022/06/09 03:58:05;;;;;;;45.08;18.80;;;16.30;99.90;;;;;;4800669;29;20050;-93
2022/06/09 04:00:32;;;;;;;40.78;17.80;;;15.70;99.90;;;;;;4787284;29;20100;-93
2022/06/09 04:03:03;;;;;;;45.42;18.60;;;16.40;99.90;;;;;;4817414;29;20149;-93
2022/06/09 04:05:30;;;;;;;44.38;18.40;;;15.90;99.90;;;;;;4819177;29;20057;-92
2022/06/09 04:07:59;;;;;;;54.53;20.27;;;15.20;99.90;;;;;;4802184;29;20054;-92
2022/06/09 04:10:32;;;;;;;48.45;20.52;;;15.80;99.90;;;;;;4816795;29;20141;-93
2022/06/09 04:12:59;;;;;;;53.78;22.85;;;16.10;99.90;;;;;;4816522;29;20058;-93
2022/06/09 04:15:25;;;;;;;53.42;21.38;;;14.90;99.90;;;;;;4816570;29;20041;-92
2022/06/09 04:17:52;;;;;;;52.03;21.55;;;16.00;99.90;;;;;;4801410;29;20085;-91
2022/06/09 04:20:20;;;;;;;46.67;20.98;;;14.70;99.90;;;;;;4816565;29;20054;-93
2022/06/09 04:22:46;;;;;;;53.17;22.27;;;16.40;99.90;;;;;;4817289;29;20057;-92
2022/06/09 04:25:12;;;;;;;51.55;23.20;;;16.60;99.90;;;;;;4801773;29;20113;-92
2022/06/09 04:27:39;;;;;;;53.53;20.65;;;15.20;99.90;;;;;;4785913;29;20058;-93
2022/06/09 04:30:06;;;;;;;50.55;23.08;;;15.20;99.90;;;;;;4786726;29;20057;-91
2022/06/09 04:32:32;;;;;;;51.55;21.92;;;16.30;99.90;;;;;;4799172;29;20050;-92
2022/06/09 04:34:58;;;;;;;57.28;22.83;;;15.40;99.90;;;;;;4785305;29;20046;-93
2022/06/09 04:37:59;;;;;;;48.67;22.83;;;16.10;99.90;;;;;;4789264;29;20049;-94
2022/06/09 04:40:10;;;;;;;49.70;22.00;;;15.80;99.90;;;;;;4807536;29;20100;-94
2022/06/09 04:42:36;;;;;;;50.17;22.52;;;15.50;99.90;;;;;;4785552;29;20053;-94
2022/06/09 04:45:03;;;;;;;52.35;22.63;;;15.70;99.90;;;;;;4799805;29;20054;-93
2022/06/09 04:47:29;;;;;;;53.08;24.02;;;15.70;99.90;;;;;;4801487;29;20165;-94
2022/06/09 04:49:55;;;;;;;44.08;22.80;;;16.20;99.90;;;;;;4801249;29;20053;-93
2022/06/09 04:52:24;;;;;;;47.03;20.55;;;14.90;99.90;;;;;;4785501;29;20049;-95
2022/06/09 04:54:50;;;;;;;47.40;22.05;;;15.10;99.90;;;;;;4799886;29;20050;-93
2022/06/09 04:57:16;;;;;;;41.60;21.58;;;15.80;99.90;;;;;;4783944;29;20060;-94
2022/06/09 04:59:45;;;;;;;42.90;20.92;;;16.80;99.90;;;;;;4783934;29;20430;-94
2022/06/09 05:02:11;;;;;;;41.58;21.38;;;16.40;99.90;;;;;;4783893;29;20050;-93
2022/06/09 05:04:36;;;;;;;40.25;21.33;;;15.10;99.90;;;;;;4797651;29;20046;-91
2022/06/09 05:07:03;;;;;;;45.10;20.48;;;15.90;99.90;;;;;;4782439;29;20042;-93
2022/06/09 05:09:31;;;;;;;44.42;21.98;;;16.60;99.90;;;;;;4783079;29;20050;-93
2022/06/09 05:11:59;;;;;;;43.40;22.92;;;16.00;99.90;;;;;;4796717;29;20419;-94
2022/06/09 05:14:25;;;;;;;37.58;21.20;;;16.80;99.90;;;;;;4782758;29;20369;-93
2022/06/09 05:16:51;;;;;;;35.60;20.52;;;16.80;99.90;;;;;;4782270;29;20068;-92
2022/06/09 05:19:17;;;;;;;42.92;21.80;;;16.20;99.90;;;;;;4797343;29;20456;-94
2022/06/09 05:21:43;;;;;;;37.28;21.08;;;15.20;99.90;;;;;;4784494;29;20054;-92
2022/06/09 05:24:11;;;;;;;39.13;22.33;;;16.40;99.90;;;;;;4801620;29;20057;-94
2022/06/09 05:26:37;;;;;;;41.95;22.05;;;16.30;99.90;;;;;;4804048;29;20058;-93
2022/06/09 05:29:03;;;;;;;40.03;21.50;;;16.50;99.90;;;;;;4783379;29;20058;-93
2022/06/09 05:31:32;;;;;;;40.78;21.63;;;16.90;99.90;;;;;;4797617;29;20332;-93
2022/06/09 05:33:58;;;;;;;39.38;21.02;;;15.40;99.90;;;;;;4798865;29;20049;-92
2022/06/09 05:36:24;;;;;;;35.55;20.73;;;16.40;99.90;;;;;;4782556;29;20054;-92
2022/06/09 05:47:04;;;;;;;39.20;22.40;;;16.20;99.90;;;;;;4802496;29;20096;-92
2022/06/09 05:49:32;;;;;;;33.05;20.27;;;15.70;99.90;;;;;;4800234;29;20054;-91
2022/06/09 05:51:58;;;;;;;29.67;18.98;;;15.20;99.90;;;;;;4801449;29;20087;-92
2022/06/09 05:54:25;;;;;;;26.77;18.42;;;17.00;99.90;;;;;;4786158;29;20053;-91
2022/06/09 05:56:51;;;;;;;30.05;18.92;;;15.10;99.90;;;;;;4787388;29;20460;-94
2022/06/09 05:59:17;;;;;;;30.23;17.73;;;16.80;99.90;;;;;;4816353;29;20045;-93
2022/06/09 06:01:43;;;;;;;30.95;18.58;;;16.50;99.90;;;;;;4815237;29;20065;-94
2022/06/09 06:04:11;;;;;;;31.90;20.17;;;17.00;99.90;;;;;;4800340;29;20058;-92
2022/06/09 06:06:37;;;;;;;30.70;19.77;;;17.50;99.90;;;;;;4800204;29;20114;-92
2022/06/09 06:09:09;;;;;;;33.20;21.08;;;16.90;99.90;;;;;;4814955;29;20084;-93
2022/06/09 06:11:38;;;;;;;38.70;21.90;;;15.40;99.90;;;;;;4816759;29;20054;-94
2022/06/09 06:14:04;;;;;;;36.83;21.25;;;17.40;99.90;;;;;;4799148;29;20387;-93
2022/06/09 06:16:31;;;;;;;36.75;22.15;;;15.40;99.90;;;;;;4807782;29;20084;-91
2022/06/09 06:18:57;;;;;;;35.63;20.63;;;16.70;99.90;;;;;;4782316;29;20082;-91
2022/06/09 06:21:24;;;;;;;34.72;21.38;;;15.70;99.90;;;;;;4797084;29;20058;-91
2022/06/09 06:23:53;;;;;;;41.47;20.35;;;15.50;99.90;;;;;;4785242;29;20057;-93
2022/06/09 06:26:19;;;;;;;35.67;21.25;;;16.00;99.90;;;;;;4800120;29;20122;-92
2022/06/09 06:28:46;;;;;;;34.63;22.02;;;15.50;99.90;;;;;;4792956;29;20066;-91
2022/06/09 06:31:15;;;;;;;35.38;22.27;;;17.40;99.90;;;;;;4789013;29;20141;-91
2022/06/09 06:33:41;;;;;;;29.15;21.25;;;15.40;99.90;;;;;;4784865;29;20061;-93
2022/06/09 06:36:07;;;;;;;30.85;19.60;;;17.20;99.90;;;;;;4769964;29;20146;-92
2022/06/09 06:38:33;;;;;;;30.95;21.65;;;16.90;99.90;;;;;;4770452;29;20107;-92
2022/06/09 06:41:03;;;;;;;28.77;20.38;;;16.30;99.90;;;;;;4798707;29;20066;-93
2022/06/09 06:43:29;;;;;;;28.63;19.08;;;16.60;99.90;;;;;;4813874;29;20435;-92
2022/06/09 06:45:54;;;;;;;25.65;19.60;;;18.50;99.90;;;;;;4782903;29;20054;-93
2022/06/09 06:48:20;;;;;;;28.70;20.42;;;15.80;99.90;;;;;;4784083;29;20065;-90
2022/06/09 06:50:46;;;;;;;25.83;18.50;;;17.90;99.90;;;;;;4768900;29;20519;-92
2022/06/09 06:53:13;;;;;;;23.73;18.25;;;17.30;99.90;;;;;;4768201;29;20141;-93
2022/06/09 06:55:40;;;;;;;23.83;17.45;;;16.90;99.90;;;;;;4783253;29;20059;-92
2022/06/09 06:58:06;;;;;;;22.00;17.52;;;16.50;99.90;;;;;;4798327;29;20054;-93
2022/06/09 07:00:33;;;;;;;22.55;17.25;;;17.40;99.90;;;;;;4768949;29;20107;-92
2022/06/09 07:02:58;;;;;;;23.70;18.35;;;16.60;99.90;;;;;;4799182;29;20066;-93
2022/06/09 07:05:25;;;;;;;24.05;18.75;;;18.30;99.90;;;;;;4769218;29;20057;-90
2022/06/09 07:07:51;;;;;;;22.75;18.00;;;15.90;99.90;;;;;;4797964;29;20060;-92
2022/06/09 07:10:18;;;;;;;21.50;16.77;;;18.10;99.90;;;;;;4768752;29;20133;-92
2022/06/09 07:12:47;;;;;;;18.83;14.93;;;18.60;99.90;;;;;;4784006;29;20097;-91
2022/06/09 07:15:14;;;;;;;17.88;13.27;;;18.60;99.90;;;;;;4798512;29;20057;-93
2022/06/09 07:17:40;;;;;;;16.77;13.68;;;16.20;99.90;;;;;;4806508;29;20046;-92
2022/06/09 07:20:10;;;;;;;16.58;12.52;;;16.40;99.90;;;;;;4786773;29;20106;-93
2022/06/09 07:22:36;;;;;;;14.80;11.48;;;17.60;99.90;;;;;;4784766;29;20051;-92
2022/06/09 07:25:05;;;;;;;15.00;11.77;;;17.90;99.90;;;;;;4768259;29;20055;-91
2022/06/09 07:27:31;;;;;;;15.20;12.13;;;18.20;99.90;;;;;;4814583;29;20054;-92
2022/06/09 07:29:57;;;;;;;12.27;10.98;;;19.10;99.90;;;;;;4810858;29;20085;-92
2022/06/09 07:32:23;;;;;;;14.27;11.82;;;16.20;99.90;;;;;;4786966;29;20070;-90
2022/06/09 07:34:50;;;;;;;13.43;11.48;;;16.70;99.90;;;;;;4784120;29;20050;-92
2022/06/09 07:37:16;;;;;;;14.73;11.02;;;18.00;99.90;;;;;;4770294;29;20091;-91
2022/06/09 07:39:43;;;;;;;13.38;10.13;;;17.60;99.90;;;;;;4785560;29;20043;-93
2022/06/09 07:42:09;;;;;;;10.48;9.38;;;17.40;99.90;;;;;;4770329;29;20084;-92
2022/06/09 07:44:36;;;;;;;9.98;8.90;;;17.50;99.90;;;;;;4783603;29;20058;-90
2022/06/09 07:47:07;;;;;;;11.77;7.78;;;18.50;99.90;;;;;;4784960;29;20088;-91
2022/06/09 07:49:33;;;;;;;11.20;7.60;;;16.40;99.90;;;;;;4771629;29;20047;-93
2022/06/09 07:52:14;;;;;;;8.30;7.20;;;18.70;99.90;;;;;;4785929;29;20081;-91
2022/06/09 07:54:41;;;;;;;10.88;8.35;;;18.70;99.90;;;;;;4786861;29;20093;-91
2022/06/09 07:57:08;;;;;;;9.68;8.05;;;17.00;99.90;;;;;;4785803;29;20122;-90
2022/06/09 07:59:35;;;;;;;8.40;6.90;;;18.60;99.90;;;;;;4787108;29;20050;-93
2022/06/09 08:02:03;;;;;;;9.63;7.22;;;17.30;99.90;;;;;;4787474;29;20068;-93
2022/06/09 08:04:30;;;;;;;9.80;7.10;;;17.90;99.90;;;;;;4798785;29;20503;-92
2022/06/09 08:06:56;;;;;;;4.97;4.47;;;19.20;99.90;;;;;;4782372;29;20111;-94
2022/06/09 08:09:25;;;;;;;5.18;4.32;;;17.40;99.90;;;;;;4782986;29;20047;-91
2022/06/09 08:11:52;;;;;;;5.13;3.90;;;19.20;99.90;;;;;;4783518;29;20582;-92
2022/06/09 08:14:17;;;;;;;5.55;3.80;;;17.80;99.90;;;;;;4768207;29;20576;-92
2022/06/09 08:16:44;;;;;;;4.93;3.85;;;18.90;99.90;;;;;;4767415;29;20050;-91
2022/06/09 08:19:12;;;;;;;6.20;4.10;;;17.80;99.90;;;;;;4783114;29;20053;-89
2022/06/09 08:21:42;;;;;;;6.85;4.18;;;18.30;99.90;;;;;;4797336;29;20054;-91
2022/06/09 08:24:09;;;;;;;5.32;3.60;;;19.60;99.90;;;;;;4800226;29;20385;-90
2022/06/09 08:26:43;;;;;;;4.05;2.78;;;18.20;99.90;;;;;;4804097;29;20404;-91
2022/06/09 08:29:23;;;;;;;4.38;2.60;;;18.40;99.90;;;;;;4795742;29;20058;-93
2022/06/09 08:31:53;;;;;;;4.60;2.70;;;17.90;99.90;;;;;;4789794;29;20635;-90
2022/06/09 08:34:21;;;;;;;3.58;2.45;;;18.50;99.90;;;;;;4797188;29;20058;-91
2022/06/09 08:36:47;;;;;;;4.72;2.40;;;18.70;99.90;;;;;;4797043;29;20110;-90
2022/06/09 08:39:14;;;;;;;2.72;1.90;;;18.70;99.90;;;;;;4768826;29;20141;-92
2022/06/09 08:41:53;;;;;;;3.67;2.05;;;18.70;99.90;;;;;;4769431;29;20062;-92
2022/06/09 08:44:44;;;;;;;4.20;2.30;;;18.10;99.90;;;;;;4812170;29;20515;-92
2022/06/09 08:47:24;;;;;;;3.95;2.08;;;19.00;99.90;;;;;;4813043;29;20118;-92
2022/06/09 08:50:03;;;;;;;3.28;2.20;;;19.30;99.90;;;;;;4815243;29;20054;-93
2022/06/09 08:52:42;;;;;;;4.15;2.00;;;19.40;99.90;;;;;;4818211;29;20049;-91
2022/06/09 08:55:27;;;;;;;2.10;1.52;;;19.40;99.90;;;;;;4805749;29;20061;-90
2022/06/09 08:58:10;;;;;;;3.75;1.77;;;19.20;99.90;;;;;;4801020;29;20404;-89
2022/06/09 09:00:47;;;;;;;3.95;1.80;;;19.20;99.90;;;;;;4797464;29;20096;-91
2022/06/09 09:03:29;;;;;;;4.95;2.00;;;19.30;99.90;;;;;;4814110;29;20065;-93
2022/06/09 09:06:11;;;;;;;5.63;1.50;;;18.90;99.90;;;;;;4801110;29;20050;-91
2022/06/09 09:08:38;;;;;;;3.63;1.85;;;19.00;99.90;;;;;;4799994;29;20058;-90
2022/06/09 09:11:34;;;;;;;5.10;1.50;;;19.30;99.90;;;;;;4801460;29;20216;-93
2022/06/09 09:14:05;;;;;;;3.42;1.08;;;19.90;99.90;;;;;;4815251;29;20053;-89
2022/06/09 09:16:58;;;;;;;4.53;1.95;;;20.60;99.90;;;;;;4799151;29;20489;-90
2022/06/09 09:19:23;;;;;;;5.05;1.33;;;20.50;99.90;;;;;;4763604;29;20053;-92
2022/06/09 09:22:32;;;;;;;4.18;1.17;;;20.90;99.90;;;;;;4812094;29;20050;-90
2022/06/09 09:25:21;;;;;;;5.68;1.40;;;20.00;99.90;;;;;;4813059;29;20111;-91
2022/06/09 09:28:21;;;;;;;6.57;1.55;;;20.00;99.90;;;;;;4798675;29;20058;-90
2022/06/09 09:31:17;;;;;;;2.78;1.60;;;20.50;99.90;;;;;;4798109;29;20082;-92
2022/06/09 09:33:45;;;;;;;4.95;1.25;;;20.60;99.90;;;;;;4811992;29;20045;-92
2022/06/09 09:36:21;;;;;;;3.00;1.00;;;21.00;99.90;;;;;;4794652;29;20141;-92
2022/06/09 09:39:03;;;;;;;2.40;1.05;;;21.60;99.90;;;;;;4797259;29;20054;-94
2022/06/09 09:41:35;;;;;;;11.40;1.85;;;21.30;99.90;;;;;;4793808;29;20058;-92
2022/06/09 09:44:22;;;;;;;3.20;1.30;;;21.40;99.90;;;;;;4794120;29;20061;-93
2022/06/09 09:46:57;;;;;;;3.42;1.20;;;20.90;99.90;;;;;;4795185;29;20090;-93
2022/06/09 09:49:33;;;;;;;4.03;1.40;;;20.90;99.90;;;;;;4802696;29;20053;-92
2022/06/09 09:52:00;;;;;;;3.38;1.58;;;20.90;99.90;;;;;;4798494;29;20063;-92
2022/06/09 09:54:36;;;;;;;2.85;1.10;;;20.90;99.90;;;;;;4810375;29;20111;-92
2022/06/09 09:57:15;;;;;;;3.45;1.08;;;20.20;99.90;;;;;;4814777;29;20054;-93
2022/06/09 09:59:48;;;;;;;2.67;1.30;;;20.60;99.90;;;;;;4818180;29;20403;-93
2022/06/09 10:08:46;;;;;;;2.60;1.20;;;21.10;99.90;;;;;;4831697;29;20050;-91
2022/06/09 10:11:53;;;;;;;3.95;1.42;;;20.90;99.90;;;;;;4813820;29;20053;-92
2022/06/09 10:14:36;;;;;;;3.92;1.38;;;20.40;99.90;;;;;;4807803;29;20050;-93
2022/06/09 10:17:07;;;;;;;3.83;1.20;;;20.80;99.90;;;;;;4831217;29;20057;-93
2022/06/09 10:19:34;;;;;;;3.22;1.00;;;21.30;99.90;;;;;;4816845;29;20408;-94
2022/06/09 10:22:16;;;;;;;3.42;1.17;;;21.10;99.90;;;;;;4815728;29;20057;-93
2022/06/09 10:24:50;;;;;;;2.90;1.27;;;21.40;99.90;;;;;;4830810;29;20126;-93
2022/06/09 10:27:21;;;;;;;3.63;1.30;;;21.40;99.90;;;;;;4816224;29;20565;-93
2022/06/09 10:29:58;;;;;;;4.63;1.30;;;21.70;99.90;;;;;;4817125;29;20114;-93
2022/06/09 10:32:33;;;;;;;2.97;1.13;;;21.40;99.90;;;;;;4817323;29;20510;-90
2022/06/09 10:35:10;;;;;;;3.88;1.20;;;22.30;99.90;;;;;;4847830;29;20494;-90
2022/06/09 10:38:02;;;;;;;4.85;1.25;;;21.90;99.90;;;;;;4831932;29;20054;-92
2022/06/09 10:40:44;;;;;;;4.10;1.67;;;21.60;99.90;;;;;;4817113;29;20050;-92
2022/06/09 10:43:32;;;;;;;4.68;1.55;;;22.10;99.90;;;;;;4814620;29;20069;-91
2022/06/09 10:46:26;;;;;;;5.03;1.50;;;22.70;99.90;;;;;;4815087;29;20053;-91
2022/06/09 10:55:15;;;;;;;3.97;1.00;;;22.80;99.90;;;;;;4833334;29;20050;-91
2022/06/09 10:57:51;;;;;;;4.80;1.35;;;22.40;99.90;;;;;;4833673;29;20498;-90
2022/06/09 11:00:46;;;;;;;3.65;1.00;;;22.00;99.90;;;;;;4820642;29;20052;-93
2022/06/09 11:03:17;;;;;;;3.70;1.15;;;21.50;99.90;;;;;;4814891;29;20084;-91
2022/06/09 11:05:57;;;;;;;2.28;1.10;;;21.10;99.90;;;;;;4829897;29;20054;-91
2022/06/09 11:08:38;;;;;;;4.60;1.30;;;21.10;99.90;;;;;;4814113;29;20553;-90
2022/06/09 11:11:10;;;;;;;3.78;1.30;;;20.70;99.90;;;;;;4815674;29;20092;-91
2022/06/09 11:13:48;;;;;;;4.65;1.30;;;20.50;99.90;;;;;;4829436;29;20053;-91
2022/06/09 11:16:28;;;;;;;3.47;1.13;;;20.90;99.90;;;;;;4815015;29;20497;-94
2022/06/09 11:19:08;;;;;;;4.28;1.23;;;21.70;99.90;;;;;;4829957;29;20511;-90
2022/06/09 11:21:41;;;;;;;3.85;1.20;;;21.80;99.90;;;;;;4834075;29;20054;-90
2022/06/09 11:24:28;;;;;;;3.28;0.90;;;22.20;99.90;;;;;;4836089;29;20050;-92
2022/06/09 11:27:13;;;;;;;3.72;1.13;;;22.20;99.90;;;;;;4831547;29;20092;-92
2022/06/09 11:29:45;;;;;;;;;;;22.30;99.90;;;;;;4816244;29;20505;-95
2022/06/09 11:32:24;;;;;;;2.85;1.10;;;22.10;99.90;;;;;;4831179;29;19981;-93
2022/06/09 11:35:13;;;;;;;2.03;1.15;;;22.30;99.90;;;;;;4832381;29;20117;-91
2022/06/09 11:37:52;;;;;;;3.08;1.42;;;21.50;99.90;;;;;;4832710;29;20123;-92
2022/06/09 11:40:18;;;;;;;4.85;1.45;;;21.60;99.90;;;;;;4816679;29;20058;-91
2022/06/09 11:43:05;;;;;;;5.15;1.27;;;21.70;99.90;;;;;;4832010;29;20476;-92
2022/06/09 11:46:00;;;;;;;3.10;1.20;;;22.20;99.90;;;;;;4818581;29;20061;-93
2022/06/09 11:48:46;;;;;;;;;;;22.10;99.90;;;;;;4832122;29;20060;-90
2022/06/09 11:51:17;;;;;;;4.22;1.08;;;22.50;99.90;;;;;;4815929;29;19924;-91
2022/06/09 11:53:50;;;;;;;4.53;1.17;;;22.50;99.90;;;;;;4816841;29;20481;-91
2022/06/09 11:56:45;;;;;;;3.00;1.10;;;22.40;99.90;;;;;;4833488;29;20496;-89
2022/06/09 11:59:42;;;;;;;2.85;1.00;;;22.50;99.90;;;;;;4815403;29;20077;-91
2022/06/09 12:02:31;;;;;;;3.53;1.20;;;23.20;99.90;;;;;;4813673;29;20050;-92
2022/06/09 12:05:12;;;;;;;3.42;1.10;;;23.40;99.90;;;;;;4804814;29;20399;-90
2022/06/09 12:08:06;;;;;;;3.47;0.90;;;23.10;99.90;;;;;;4829478;29;20069;-90
2022/06/09 12:10:54;;;;;;;2.80;1.20;;;23.50;99.90;;;;;;4830464;29;20053;-89
2022/06/09 12:13:33;;;;;;;2.65;1.17;;;24.20;99.90;;;;;;4829855;29;20404;-91
2022/06/09 12:16:05;;;;;;;1.95;0.90;;;24.30;99.90;;;;;;4831904;29;20476;-91
2022/06/09 12:18:45;;;;;;;2.88;1.00;;;23.90;99.90;;;;;;4815165;29;20377;-92
2022/06/09 12:21:15;;;;;;;3.42;1.10;;;23.20;99.90;;;;;;4814434;29;20053;-93
2022/06/09 12:23:50;;;;;;;2.22;1.00;;;23.30;99.90;;;;;;4816240;29;20049;-95
2022/06/09 12:26:19;;;;;;;3.58;1.05;;;23.10;99.90;;;;;;4827353;29;20054;-91
2022/06/09 12:28:57;;;;;;;2.00;1.00;;;23.50;99.90;;;;;;4813684;29;20486;-93
2022/06/09 12:31:30;;;;;;;2.83;1.10;;;23.70;99.90;;;;;;4828870;29;20058;-88
2022/06/09 12:34:11;;;;;;;3.40;1.33;;;22.80;99.90;;;;;;4814241;29;20050;-91
2022/06/09 12:36:51;;;;;;;5.93;1.75;;;22.20;99.90;;;;;;4829336;29;20368;-88
2022/06/09 12:39:28;;;;;;;3.92;1.38;;;22.50;99.90;;;;;;4832805;29;20026;-91
2022/06/09 12:42:23;;;;;;;2.88;1.30;;;22.60;99.90;;;;;;4813392;29;20061;-91
2022/06/09 12:45:00;;;;;;;4.07;1.80;;;22.80;99.90;;;;;;4810008;29;20068;-90
2022/06/09 12:47:29;;;;;;;4.35;1.20;;;23.00;99.90;;;;;;4812313;29;20122;-89
2022/06/09 12:49:59;;;;;;;2.70;1.17;;;22.80;99.90;;;;;;4812689;29;20050;-90
2022/06/09 12:52:38;;;;;;;4.43;1.50;;;22.70;99.90;;;;;;4813144;29;20046;-88
2022/06/09 12:55:14;;;;;;;5.70;1.48;;;22.30;99.90;;;;;;4812064;29;20050;-91
2022/06/09 12:58:03;;;;;;;6.13;1.70;;;22.10;99.90;;;;;;4827483;29;20054;-91
2022/06/09 13:00:38;;;;;;;3.75;1.45;;;22.20;99.90;;;;;;4813528;29;20091;-94
2022/06/09 13:03:30;;;;;;;2.65;1.25;;;22.40;99.90;;;;;;4812845;29;20126;-88
2022/06/09 13:06:08;;;;;;;4.82;1.20;;;22.10;99.90;;;;;;4802287;29;20085;-88
2022/06/09 13:08:49;;;;;;;7.53;1.13;;;23.00;99.90;;;;;;4798699;29;20061;-90
2022/06/09 13:14:22;;;;;;;2.90;1.15;;;23.70;99.90;;;;;;4811655;29;20057;-91
2022/06/09 13:16:53;;;;;;;1.90;0.90;;;23.60;99.90;;;;;;4795582;29;20050;-89
2022/06/09 13:19:23;;;;;;;3.13;1.20;;;23.40;99.90;;;;;;4795610;29;20058;-88
2022/06/09 13:21:50;;;;;;;2.60;1.05;;;22.70;99.90;;;;;;4795475;29;20097;-90
2022/06/09 13:24:22;;;;;;;3.20;1.35;;;23.40;99.90;;;;;;4789260;29;20064;-90